Sommer S — WDG3830 — position and weather

sailwx.info

Track history (hours):
 
Tides and Currents Weather Stations Pressure Air Temp Water Temp Dewpoint Dewpoint Depression Visibility Wind Speed Wind Dir Waves Ship Positions

Sommer S

Owner: Shaver Transportation Company, Portland, OR. More information available from US FCC via Universal Licensing System and Coast Guard Vessel Documentation Center.

Last reported at 2017-Oct-17 21:00 UTC. Time now 2017-Oct-17 21:04 UTC.
Position N 46°03' W 122°53'.

Length 25 m; draft 16.5 m.

Type: Tug. MMSI: 367530080.

Date/timePositionNaut miles runAvg speedWind from/ knotsBaromVisibWave heightAir tempDewpointWater temp
2017-Oct-17 21:00N 46°03' W 122°53'3 5.2
2017-Oct-17 20:30N 46°05' W 122°55'2 4.3
2017-Oct-17 20:00N 46°06' W 122°57'0 0.3
2017-Oct-17 19:30N 46°06' W 122°57'1 1.1
2017-Oct-17 19:00N 46°06' W 122°56'0 0.3
2017-Oct-17 18:30N 46°06' W 122°56'0 0.0
2017-Oct-17 18:00N 46°06' W 122°56'0 0.0
2017-Oct-17 17:30N 46°06' W 122°56'0 0.0
2017-Oct-17 17:00N 46°06' W 122°56'1 1.7
2017-Oct-17 16:30N 46°05' W 122°55'2 4.3
2017-Oct-17 16:00N 46°04' W 122°53'5 9.4
2017-Oct-17 15:30N 45°60' W 122°51'4 9.0
2017-Oct-17 15:00N 45°55' W 122°48'4 8.5
2017-Oct-17 14:30N 45°51' W 122°47'4 7.3
2017-Oct-17 14:00N 45°48' W 122°47'4 7.2
2017-Oct-17 13:30N 45°44' W 122°46'3 6.8
2017-Oct-17 13:00N 45°41' W 122°46'2 4.6
2017-Oct-17 12:30N 45°39' W 122°45'1 1.0
2017-Oct-17 12:00N 45°39' W 122°46'1 1.1
2017-Oct-17 11:30N 45°39' W 122°45'1 2.0
2017-Oct-17 11:00N 45°38' W 122°43'2 3.0
2017-Oct-17 10:30N 45°39' W 122°46'0 0.7
2017-Oct-17 10:00N 45°39' W 122°46'1 1.1
2017-Oct-17 09:30N 45°40' W 122°46'0 0.2
2017-Oct-17 09:00N 45°40' W 122°46'2 3.8
2017-Oct-17 08:30N 45°39' W 122°44'2 3.6
2017-Oct-17 08:00N 45°38' W 122°42'0 0.0
2017-Oct-17 07:29N 45°38' W 122°42'0 0.4
2017-Oct-17 07:00N 45°38' W 122°42'0 0.0
2017-Oct-17 06:30N 45°38' W 122°42'0 0.0
2017-Oct-17 06:00N 45°38' W 122°42'0 0.0
2017-Oct-17 05:30N 45°38' W 122°42'0 0.0
2017-Oct-17 05:00N 45°38' W 122°42'0 0.0
2017-Oct-17 04:30N 45°38' W 122°42'1 1.5
2017-Oct-17 04:00N 45°38' W 122°43'2 3.4
2017-Oct-17 03:30N 45°39' W 122°45'2 3.9
2017-Oct-17 03:00N 45°37' W 122°47'4 8.4
2017-Oct-17 02:30N 45°34' W 122°44'0 0.9
2017-Oct-17 02:00N 45°34' W 122°44'0 0.0
2017-Oct-17 01:30N 45°34' W 122°44'0 0.0
2017-Oct-17 01:00N 45°34' W 122°44'0 0.0
2017-Oct-17 00:30N 45°34' W 122°44'0 0.0
2017-Oct-17 00:00N 45°34' W 122°44'0 0.0
2017-Oct-16 23:30N 45°34' W 122°44'0 0.0
2017-Oct-16 23:00N 45°34' W 122°44'0 0.1
2017-Oct-16 22:30N 45°34' W 122°44'0 0.0
2017-Oct-16 22:00N 45°34' W 122°44'0 0.0
2017-Oct-16 21:30N 45°34' W 122°44'0 0.0
2017-Oct-16 21:00N 45°34' W 122°44'0 0.0
2017-Oct-16 20:30N 45°34' W 122°44'0 0.0
2017-Oct-16 20:00N 45°34' W 122°44'0 0.0
2017-Oct-16 19:30N 45°34' W 122°44'0 0.0
2017-Oct-16 19:00N 45°34' W 122°44'0 0.0
2017-Oct-16 18:30N 45°34' W 122°44'0 0.0
2017-Oct-16 18:00N 45°34' W 122°44'0 0.0
2017-Oct-16 17:30N 45°34' W 122°44'0 0.0
2017-Oct-16 17:00N 45°34' W 122°44'0 0.0
2017-Oct-16 16:30N 45°34' W 122°44'0 0.0
2017-Oct-16 16:00N 45°34' W 122°44'0 0.0
2017-Oct-16 15:30N 45°34' W 122°44'0 0.0
2017-Oct-16 15:00N 45°34' W 122°44'0 0.0
2017-Oct-16 14:30N 45°34' W 122°44'0 0.0
2017-Oct-16 13:30N 45°34' W 122°44'0 0.0
2017-Oct-16 13:00N 45°34' W 122°44'0 0.0
2017-Oct-16 12:30N 45°34' W 122°44'0 0.0
2017-Oct-16 12:00N 45°34' W 122°44'0 0.0
2017-Oct-16 11:30N 45°34' W 122°44'2 4.8
2017-Oct-16 11:00N 45°35' W 122°46'3 6.1
2017-Oct-16 10:30N 45°38' W 122°47'0 0.3
2017-Oct-16 10:00N 45°38' W 122°47'3 5.1
2017-Oct-16 09:30N 45°41' W 122°46'1 1.6
2017-Oct-16 09:00N 45°40' W 122°46'4 8.0
2017-Oct-16 08:30N 45°38' W 122°42'0 0.2
2017-Oct-16 08:00N 45°38' W 122°42'1 1.0
2017-Oct-16 07:22N 45°38' W 122°43'2 4.7
2017-Oct-16 07:00N 45°39' W 122°45'510.0
2017-Oct-16 06:30N 45°44' W 122°46'510.6
2017-Oct-16 06:00N 45°49' W 122°48'510.2
2017-Oct-16 05:30N 45°54' W 122°48'510.1
2017-Oct-16 05:00N 45°59' W 122°50'510.1
2017-Oct-16 04:30N 46°03' W 122°53'4 8.4
2017-Oct-16 04:00N 46°06' W 122°58'1 1.3
2017-Oct-16 03:31N 46°06' W 122°57'0 0.1
2017-Oct-16 03:00N 46°06' W 122°57'0 0.1
2017-Oct-16 02:30N 46°06' W 122°57'0 0.1
2017-Oct-16 02:00N 46°06' W 122°57'0 0.1
2017-Oct-16 01:30N 46°06' W 122°57'0 0.6
2017-Oct-16 01:00N 46°06' W 122°57'0 0.2
2017-Oct-16 00:30N 46°06' W 122°56'0 0.1
2017-Oct-16 00:00N 46°06' W 122°56'0 0.0
2017-Oct-15 23:30N 46°06' W 122°56'0 0.0
2017-Oct-15 23:00N 46°06' W 122°56'1 1.3
2017-Oct-15 22:30N 46°05' W 122°56'1 1.0
2017-Oct-15 22:00N 46°06' W 122°56'1 1.4
2017-Oct-15 21:30N 46°05' W 122°55'4 8.7
2017-Oct-15 21:00N 46°02' W 122°53'0 0.0
2017-Oct-15 20:29N 46°02' W 122°53'4 8.9
2017-Oct-15 20:00N 46°05' W 122°55'0 0.6
2017-Oct-15 19:25N 46°05' W 122°56'2 4.3
2017-Oct-15 19:00N 46°05' W 122°54'1 2.0
2017-Oct-15 18:30N 46°04' W 122°53'5 9.0
2017-Oct-15 18:00N 46°06' W 122°58'611.9
2017-Oct-15 17:30N 46°10' W 123°05'510.8
2017-Oct-15 17:00N 46°10' W 123°13'1 2.8
2017-Oct-15 16:30N 46°11' W 123°11'611.1
2017-Oct-15 16:00N 46°09' W 123°03'612.0
2017-Oct-15 15:30N 46°06' W 122°56'612.1
2017-Oct-15 15:00N 46°01' W 122°52'2 1.4
2017-Oct-15 13:54N 45°59' W 122°50'0 0.0
2017-Oct-15 13:30N 45°59' W 122°50'0 0.0
2017-Oct-15 13:00N 45°59' W 122°50'0 0.0
2017-Oct-15 12:30N 45°59' W 122°50'0 0.0
2017-Oct-15 12:00N 45°59' W 122°50'0 0.0
2017-Oct-15 11:30N 45°59' W 122°50'0 0.0
2017-Oct-15 11:00N 45°59' W 122°50'0 0.0
2017-Oct-15 10:30N 45°59' W 122°50'0 0.0
2017-Oct-15 10:00N 45°59' W 122°50'0 0.0
2017-Oct-15 09:30N 45°59' W 122°50'0 0.0
2017-Oct-15 09:00N 45°59' W 122°50'0 0.0
2017-Oct-15 08:30N 45°59' W 122°50'0 0.0
2017-Oct-15 08:01N 45°59' W 122°50'0 0.0
2017-Oct-15 07:30N 45°59' W 122°50'0 0.0
2017-Oct-15 07:00N 45°59' W 122°50'0 0.0
2017-Oct-15 06:30N 45°59' W 122°50'0 0.0
2017-Oct-15 06:00N 45°59' W 122°50'0 0.0
2017-Oct-15 05:30N 45°59' W 122°50'1 1.2
2017-Oct-15 05:00N 45°59' W 122°50'612.0
2017-Oct-15 04:30N 45°53' W 122°48'612.4
2017-Oct-15 04:00N 45°47' W 122°46'612.4
2017-Oct-15 03:30N 45°41' W 122°46'5 9.5
2017-Oct-15 03:00N 45°36' W 122°47'4 7.8
2017-Oct-15 02:30N 45°33' W 122°43'1 1.4
2017-Oct-15 01:53N 45°33' W 122°42'2 2.9
2017-Oct-15 01:20N 45°34' W 122°44'0 0.0
2017-Oct-15 01:00N 45°34' W 122°44'0 0.0
2017-Oct-15 00:30N 45°34' W 122°44'0 0.0
2017-Oct-15 00:00N 45°34' W 122°44'0 0.8
2017-Oct-14 23:30N 45°34' W 122°44'4 7.2
2017-Oct-14 22:53N 45°38' W 122°47'2 6.1
2017-Oct-14 22:30N 45°39' W 122°44'1 2.0
2017-Oct-14 22:00N 45°38' W 122°43'0 0.2
2017-Oct-14 21:30N 45°38' W 122°43'1 1.9
2017-Oct-14 21:00N 45°39' W 122°44'0 0.6
2017-Oct-14 20:30N 45°39' W 122°45'0 0.8
2017-Oct-14 20:00N 45°39' W 122°44'1 2.0
2017-Oct-14 19:30N 45°39' W 122°45'1 1.2
2017-Oct-14 19:00N 45°40' W 122°46'1 1.1
2017-Oct-14 18:30N 45°39' W 122°46'1 1.0
2017-Oct-14 18:00N 45°39' W 122°47'0 0.0
2017-Oct-14 17:30N 45°39' W 122°47'0 0.0
2017-Oct-14 17:00N 45°39' W 122°47'0 0.0
2017-Oct-14 16:30N 45°39' W 122°47'0 0.0
2017-Oct-14 16:00N 45°39' W 122°47'0 0.0
2017-Oct-14 15:30N 45°39' W 122°47'0 0.0
2017-Oct-14 15:00N 45°39' W 122°47'0 0.0
2017-Oct-14 14:30N 45°39' W 122°47'0 0.0
2017-Oct-14 14:00N 45°39' W 122°47'0 0.0
2017-Oct-14 13:30N 45°39' W 122°47'0 0.0
2017-Oct-14 13:00N 45°39' W 122°47'1 1.8
2017-Oct-14 12:30N 45°39' W 122°46'0 0.8
2017-Oct-14 12:00N 45°39' W 122°45'0 0.0
2017-Oct-14 11:30N 45°39' W 122°45'0 0.0
2017-Oct-14 11:00N 45°39' W 122°45'0 0.0
2017-Oct-14 10:30N 45°39' W 122°45'0 0.0
2017-Oct-14 10:00N 45°39' W 122°45'0 0.0
2017-Oct-14 09:29N 45°39' W 122°45'3 5.8
2017-Oct-14 09:00N 45°38' W 122°42'0 0.1
2017-Oct-14 08:30N 45°38' W 122°42'0 0.2
2017-Oct-14 08:00N 45°38' W 122°42'0 0.0
2017-Oct-14 07:30N 45°38' W 122°42'0 0.0
2017-Oct-14 07:01N 45°38' W 122°42'0 0.0
2017-Oct-14 06:30N 45°38' W 122°42'0 0.0
2017-Oct-14 06:00N 45°38' W 122°42'0 0.0
2017-Oct-14 05:30N 45°38' W 122°42'0 0.0
2017-Oct-14 05:00N 45°38' W 122°42'0 0.0
2017-Oct-14 04:27N 45°38' W 122°42'0 0.0
2017-Oct-14 04:00N 45°38' W 122°42'0 0.0
2017-Oct-14 03:21N 45°38' W 122°42'0 0.0
2017-Oct-14 03:00N 45°38' W 122°42'0 0.0
2017-Oct-14 02:30N 45°38' W 122°42'0 0.0
2017-Oct-14 02:00N 45°38' W 122°42'2 3.3
2017-Oct-14 01:30N 45°39' W 122°44'2 3.0
2017-Oct-14 01:00N 45°39' W 122°46'1 2.2
2017-Oct-14 00:31N 45°38' W 122°45'0 0.1
2017-Oct-14 00:00N 45°38' W 122°45'1 1.8
2017-Oct-13 23:30N 45°39' W 122°45'0 0.0
2017-Oct-13 23:00N 45°39' W 122°45'0 0.0
2017-Oct-13 22:30N 45°39' W 122°45'0 0.0
2017-Oct-13 22:00N 45°39' W 122°45'1 1.5
2017-Oct-13 21:15N 45°40' W 122°46'2 8.6
2017-Oct-13 21:00N 45°42' W 122°46'5 9.8
2017-Oct-13 20:30N 45°47' W 122°47'5 9.9
2017-Oct-13 20:00N 45°52' W 122°47'510.2
2017-Oct-13 19:30N 45°57' W 122°49'510.4
2017-Oct-13 19:01N 46°02' W 122°52'0 0.1
2017-Oct-13 18:21N 46°02' W 122°53'0 0.2
2017-Oct-13 18:00N 46°02' W 122°53'0 0.0
2017-Oct-13 17:13N 46°02' W 122°53'0 0.0
2017-Oct-13 17:00N 46°02' W 122°53'0 0.0
2017-Oct-13 16:30N 46°02' W 122°53'0 0.0
2017-Oct-13 16:00N 46°02' W 122°53'0 0.0
2017-Oct-13 15:30N 46°02' W 122°53'0 0.1
2017-Oct-13 15:00N 46°02' W 122°53'0 0.0
2017-Oct-13 14:30N 46°02' W 122°53'0 0.0
2017-Oct-13 13:51N 46°02' W 122°53'3 8.4
2017-Oct-13 13:30N 46°04' W 122°54'2 3.6
2017-Oct-13 12:50N 46°06' W 122°56'1 1.8
2017-Oct-13 12:30N 46°06' W 122°57'1 2.0
2017-Oct-13 11:56N 46°05' W 122°56'0 0.0
2017-Oct-13 11:30N 46°05' W 122°56'0 0.0
2017-Oct-13 11:00N 46°05' W 122°56'0 0.0
2017-Oct-13 10:30N 46°05' W 122°56'0 0.0
2017-Oct-13 10:00N 46°05' W 122°56'0 0.0
2017-Oct-13 09:15N 46°05' W 122°56'0 0.0
2017-Oct-13 09:00N 46°05' W 122°56'0 0.0
2017-Oct-13 08:30N 46°05' W 122°56'0 0.0
2017-Oct-13 07:52N 46°05' W 122°56'0 0.0
2017-Oct-13 07:30N 46°05' W 122°56'0 0.0
2017-Oct-13 06:59N 46°05' W 122°56'0 0.0
2017-Oct-13 06:30N 46°05' W 122°56'0 0.0
2017-Oct-13 05:55N 46°05' W 122°56'0 0.0
2017-Oct-13 05:30N 46°05' W 122°56'0 0.0
2017-Oct-13 05:00N 46°05' W 122°56'0 0.0
2017-Oct-13 04:30N 46°05' W 122°56'0 0.0
2017-Oct-13 04:00N 46°05' W 122°56'0 0.0
2017-Oct-13 03:30N 46°05' W 122°56'0 0.0
2017-Oct-13 03:00N 46°05' W 122°56'0 0.0
2017-Oct-13 02:21N 46°05' W 122°56'0 0.0
2017-Oct-13 02:00N 46°05' W 122°56'0 0.0
2017-Oct-13 01:30N 46°05' W 122°56'0 0.0
2017-Oct-13 01:00N 46°05' W 122°56'0 0.0
2017-Oct-13 00:30N 46°05' W 122°56'0 0.0
2017-Oct-13 00:00N 46°05' W 122°56'0 0.0
2017-Oct-12 23:30N 46°05' W 122°56'0 0.0
2017-Oct-12 23:00N 46°05' W 122°56'0 0.0
2017-Oct-12 22:30N 46°05' W 122°56'0 0.0
2017-Oct-12 22:00N 46°05' W 122°56'0 0.0
2017-Oct-12 21:30N 46°05' W 122°56'0 0.0
2017-Oct-12 21:00N 46°05' W 122°56'0 0.0
2017-Oct-12 20:31N 46°05' W 122°56'0 0.0
2017-Oct-12 20:00N 46°05' W 122°56'0 0.0
2017-Oct-12 19:30N 46°05' W 122°56'0 0.0
2017-Oct-12 19:00N 46°05' W 122°56'0 0.0
2017-Oct-12 18:30N 46°05' W 122°56'0 0.0
2017-Oct-12 18:00N 46°05' W 122°56'0 0.0
2017-Oct-12 17:30N 46°05' W 122°56'0 0.0
2017-Oct-12 16:56N 46°05' W 122°56'0 0.0
2017-Oct-12 16:30N 46°05' W 122°56'0 0.0
2017-Oct-12 16:00N 46°05' W 122°56'0 0.0
2017-Oct-12 15:30N 46°05' W 122°56'0 0.0
2017-Oct-12 15:00N 46°05' W 122°56'0 0.0
2017-Oct-12 14:30N 46°05' W 122°56'0 0.0
2017-Oct-12 13:52N 46°05' W 122°56'0 0.0
2017-Oct-12 13:30N 46°05' W 122°56'0 0.0
2017-Oct-12 12:55N 46°05' W 122°56'0 0.0
2017-Oct-12 12:30N 46°05' W 122°56'0 0.0
2017-Oct-12 11:53N 46°05' W 122°56'0 0.0
2017-Oct-12 11:31N 46°05' W 122°56'0 0.0
2017-Oct-12 10:57N 46°05' W 122°56'0 0.0
2017-Oct-12 10:30N 46°05' W 122°56'0 0.0
2017-Oct-12 09:51N 46°05' W 122°56'0 0.0
2017-Oct-12 09:30N 46°05' W 122°56'0 0.0
2017-Oct-12 08:56N 46°05' W 122°56'0 0.0
2017-Oct-12 08:30N 46°05' W 122°56'1 1.1
2017-Oct-12 07:43N 46°06' W 122°57'1 3.8
2017-Oct-12 07:30N 46°07' W 122°58'0 0.1
2017-Oct-12 07:00N 46°07' W 122°58'1 1.6
2017-Oct-12 06:30N 46°07' W 122°59'1 1.5
2017-Oct-12 06:00N 46°07' W 122°58'2 3.1
2017-Oct-12 05:26N 46°05' W 122°56'0 0.0
2017-Oct-12 05:00N 46°05' W 122°56'1 2.1
2017-Oct-12 04:30N 46°06' W 122°57'510.4
2017-Oct-12 04:00N 46°09' W 123°03'611.3
2017-Oct-12 03:30N 46°11' W 123°11'0 0.3
2017-Oct-12 03:00N 46°11' W 123°11'0 0.8
2017-Oct-12 02:30N 46°11' W 123°12'1 1.2
2017-Oct-12 02:00N 46°11' W 123°11'0 0.0
2017-Oct-12 01:30N 46°11' W 123°11'0 0.0
2017-Oct-12 01:00N 46°11' W 123°11'611.3
2017-Oct-12 00:31N 46°09' W 123°03'3 3.9
2017-Oct-11 23:50N 46°08' W 123°00'3 8.7
2017-Oct-11 23:30N 46°06' W 122°57'1 2.5
2017-Oct-11 23:00N 46°05' W 122°55'0 0.1
2017-Oct-11 22:20N 46°05' W 122°55'0 1.2
2017-Oct-11 21:58N 46°06' W 122°56'1 2.1
2017-Oct-11 21:30N 46°06' W 122°57'0 0.0
2017-Oct-11 21:00N 46°06' W 122°57'1 2.6
2017-Oct-11 20:30N 46°05' W 122°55'3 6.9
2017-Oct-11 20:00N 46°03' W 122°53'0 0.1
2017-Oct-11 19:30N 46°03' W 122°53'3 7.0
2017-Oct-11 19:00N 46°05' W 122°55'0 0.6
2017-Oct-11 18:30N 46°05' W 122°56'0 0.0
2017-Oct-11 18:00N 46°05' W 122°56'0 0.0
2017-Oct-11 17:31N 46°05' W 122°56'0 0.0
2017-Oct-11 17:00N 46°05' W 122°56'5 0.3
2017-Oct-11 00:00N 46°01' W 122°52'0 0.1
2017-Oct-10 23:30N 46°01' W 122°52'0 0.0
2017-Oct-10 23:00N 46°01' W 122°52'0 0.0
2017-Oct-10 22:30N 46°01' W 122°52'0 0.0
2017-Oct-10 22:00N 46°01' W 122°52'0 0.9
2017-Oct-10 21:30N 46°02' W 122°53'2 3.9
2017-Oct-10 21:00N 45°60' W 122°51'1 1.3
2017-Oct-10 20:30N 45°59' W 122°50'0 0.0
2017-Oct-10 20:01N 45°59' W 122°50'0 0.0
2017-Oct-10 19:30N 45°59' W 122°50'0 0.0
2017-Oct-10 19:01N 45°59' W 122°50'0 0.0
2017-Oct-10 18:30N 45°59' W 122°50'0 0.0
2017-Oct-10 18:00N 45°59' W 122°50'0 0.0
2017-Oct-10 17:30N 45°59' W 122°50'0 0.0
2017-Oct-10 17:00N 45°59' W 122°50'0 0.0
2017-Oct-10 16:31N 45°59' W 122°50'0 0.0
2017-Oct-10 16:00N 45°59' W 122°50'0 0.0
2017-Oct-10 15:26N 45°59' W 122°50'0 0.0
2017-Oct-10 15:00N 45°59' W 122°50'1 0.5
2017-Oct-10 14:00N 45°59' W 122°50'0 0.1
2017-Oct-10 13:30N 45°59' W 122°50'1 1.5
2017-Oct-10 13:00N 45°60' W 122°51'0 0.3
2017-Oct-10 12:15N 45°59' W 122°50'0 0.0
2017-Oct-10 12:00N 45°59' W 122°50'0 0.0
2017-Oct-10 11:30N 45°59' W 122°50'0 0.0
2017-Oct-10 11:00N 45°59' W 122°50'0 0.0
2017-Oct-10 10:30N 45°59' W 122°50'0 0.0
2017-Oct-10 10:01N 45°59' W 122°50'0 0.0
2017-Oct-10 09:17N 45°59' W 122°50'0 0.0
2017-Oct-10 08:51N 45°59' W 122°50'0 0.0
2017-Oct-10 08:30N 45°59' W 122°50'0 0.0
2017-Oct-10 08:00N 45°59' W 122°50'0 0.0
2017-Oct-10 07:31N 45°59' W 122°50'0 0.0
2017-Oct-10 07:00N 45°59' W 122°50'0 0.0
2017-Oct-10 06:30N 45°59' W 122°50'0 0.0
2017-Oct-10 05:56N 45°59' W 122°50'0 0.0
2017-Oct-10 05:30N 45°59' W 122°50'0 0.0
2017-Oct-10 05:01N 45°59' W 122°50'0 0.0
2017-Oct-10 04:30N 45°59' W 122°50'0 0.0
2017-Oct-10 03:51N 45°59' W 122°50'0 0.0
2017-Oct-10 03:30N 45°59' W 122°50'0 0.0
2017-Oct-10 02:56N 45°59' W 122°50'0 0.0
2017-Oct-10 02:30N 45°59' W 122°50'0 0.0
2017-Oct-10 02:01N 45°59' W 122°50'0 0.4
2017-Oct-10 01:11N 45°59' W 122°50'0 1.8
2017-Oct-10 01:01N 45°59' W 122°50'2 4.0
2017-Oct-10 00:30N 46°01' W 122°52'510.0
2017-Oct-10 00:01N 46°05' W 122°56'0 0.4
2017-Oct-09 23:30N 46°05' W 122°56'0 0.0
2017-Oct-09 23:00N 46°05' W 122°56'0 0.0
2017-Oct-09 22:30N 46°05' W 122°56'0 0.0
2017-Oct-09 22:00N 46°05' W 122°56'0 0.0
2017-Oct-09 21:30N 46°05' W 122°56'0 0.0
2017-Oct-09 21:00N 46°05' W 122°56'0 0.0
2017-Oct-09 20:30N 46°05' W 122°56'0 0.0
2017-Oct-09 20:00N 46°05' W 122°56'0 0.0
2017-Oct-09 19:31N 46°05' W 122°56'1 2.7
2017-Oct-09 19:00N 46°06' W 122°58'4 7.4
2017-Oct-09 18:30N 46°09' W 123°02'4 7.3
2017-Oct-09 18:00N 46°10' W 123°06'3 6.9
2017-Oct-09 17:30N 46°11' W 123°11'4 7.4
2017-Oct-09 17:00N 46°09' W 123°16'4 7.6
2017-Oct-09 16:30N 46°09' W 123°21'3 6.5
2017-Oct-09 16:00N 46°10' W 123°25'4 7.3
2017-Oct-09 15:31N 46°14' W 123°26'3 6.3
2017-Oct-09 15:00N 46°16' W 123°29'4 7.7
2017-Oct-09 14:30N 46°15' W 123°34'4 7.8
2017-Oct-09 14:00N 46°15' W 123°40'4 8.1
2017-Oct-09 13:30N 46°13' W 123°45'4 7.6
2017-Oct-09 13:00N 46°11' W 123°50'1 2.7
2017-Oct-09 12:30N 46°11' W 123°52'0 0.6
2017-Oct-09 12:01N 46°12' W 123°52'2 3.0
2017-Oct-09 11:30N 46°12' W 123°50'0 0.7
2017-Oct-09 10:59N 46°11' W 123°50'0 0.0
2017-Oct-09 10:13N 46°11' W 123°50'0 2.0
2017-Oct-09 10:00N 46°12' W 123°49'1 1.7
2017-Oct-09 09:30N 46°12' W 123°48'1 2.6
2017-Oct-09 09:01N 46°11' W 123°50'2 4.4
2017-Oct-09 08:30N 46°13' W 123°47'4 8.1
2017-Oct-09 08:00N 46°15' W 123°42'5 9.0
2017-Oct-09 07:30N 46°15' W 123°36'5 9.1
2017-Oct-09 07:00N 46°16' W 123°29'4 8.8
2017-Oct-09 06:30N 46°13' W 123°25'4 7.9
2017-Oct-09 06:01N 46°09' W 123°23'510.8
2017-Oct-09 05:30N 46°09' W 123°16'510.7
2017-Oct-09 05:00N 46°11' W 123°09'510.5
2017-Oct-09 04:30N 46°09' W 123°02'5 9.3
2017-Oct-09 04:00N 46°06' W 122°57'2 4.0
2017-Oct-09 03:31N 46°05' W 122°54'4 7.1
2017-Oct-09 03:00N 46°02' W 122°52'0 0.5
2017-Oct-09 02:30N 46°01' W 122°52'0 0.2
2017-Oct-09 02:00N 46°01' W 122°52'0 0.1
2017-Oct-09 01:31N 46°01' W 122°52'0 0.0
2017-Oct-09 00:49N 46°01' W 122°52'0 0.2
2017-Oct-09 00:31N 46°01' W 122°52'0 0.2
2017-Oct-09 00:00N 46°01' W 122°52'0 0.0
2017-Oct-08 23:30N 46°01' W 122°52'0 0.0
2017-Oct-08 23:00N 46°01' W 122°52'0 0.0
2017-Oct-08 22:16N 46°01' W 122°52'1 2.4
2017-Oct-08 22:00N 46°02' W 122°53'2 3.5
2017-Oct-08 21:30N 46°04' W 122°53'4 7.5
2017-Oct-08 21:00N 46°06' W 122°57'1 1.7
2017-Oct-08 20:30N 46°07' W 122°58'0 0.3
2017-Oct-08 20:00N 46°07' W 122°58'0 0.7
2017-Oct-08 19:31N 46°07' W 122°58'2 3.4
2017-Oct-08 19:00N 46°05' W 122°56'0 0.0
2017-Oct-08 18:30N 46°05' W 122°56'0 0.0
2017-Oct-08 17:47N 46°05' W 122°56'0 0.0
2017-Oct-08 17:30N 46°05' W 122°56'0 0.0
2017-Oct-08 17:00N 46°05' W 122°56'0 0.0
2017-Oct-08 16:30N 46°05' W 122°56'0 0.0
2017-Oct-08 16:00N 46°05' W 122°56'0 0.0
2017-Oct-08 15:30N 46°05' W 122°56'0 0.0
2017-Oct-08 14:46N 46°05' W 122°56'0 0.0
2017-Oct-08 14:25N 46°05' W 122°56'0 0.0
2017-Oct-08 14:01N 46°05' W 122°56'0 0.0
2017-Oct-08 13:30N 46°05' W 122°56'2 4.6
2017-Oct-08 13:00N 46°04' W 122°53'3 5.7
2017-Oct-08 12:30N 46°01' W 122°52'0 0.6
2017-Oct-08 12:01N 46°01' W 122°52'0 0.3
2017-Oct-08 11:30N 46°01' W 122°52'1 1.0
2017-Oct-08 11:01N 46°02' W 122°52'0 0.0
2017-Oct-08 10:30N 46°02' W 122°52'0 0.0
2017-Oct-08 10:01N 46°02' W 122°52'0 0.0
2017-Oct-08 09:30N 46°02' W 122°52'0 0.0
2017-Oct-08 09:00N 46°02' W 122°52'0 0.0
2017-Oct-08 08:20N 46°02' W 122°52'0 0.0
2017-Oct-08 08:01N 46°02' W 122°52'0 0.0
2017-Oct-08 07:30N 46°02' W 122°52'4 7.8
2017-Oct-08 07:00N 46°05' W 122°55'2 4.2
2017-Oct-08 06:30N 46°06' W 122°57'0 0.0
2017-Oct-08 06:00N 46°06' W 122°57'1 1.5
2017-Oct-08 05:30N 46°06' W 122°56'4 8.0
2017-Oct-08 05:00N 46°03' W 122°53'0 0.4
2017-Oct-08 04:30N 46°03' W 122°53'0 0.0
2017-Oct-08 04:00N 46°03' W 122°53'0 0.0
2017-Oct-08 03:20N 46°03' W 122°53'0 0.0
2017-Oct-08 03:01N 46°03' W 122°53'0 0.1
2017-Oct-08 02:30N 46°03' W 122°53'1 1.8
2017-Oct-08 02:00N 46°02' W 122°52'0 0.0
2017-Oct-08 01:30N 46°02' W 122°52'0 0.0
2017-Oct-08 00:58N 46°02' W 122°52'0 0.0
2017-Oct-08 00:30N 46°02' W 122°52'0 0.0
2017-Oct-08 00:00N 46°02' W 122°52'0 0.0
2017-Oct-07 23:30N 46°02' W 122°52'0 0.0
2017-Oct-07 23:00N 46°02' W 122°52'0 0.0
2017-Oct-07 22:30N 46°02' W 122°52'0 0.0
2017-Oct-07 22:00N 46°02' W 122°52'0 0.0
2017-Oct-07 21:30N 46°02' W 122°52'0 0.0
2017-Oct-07 21:00N 46°02' W 122°52'  
Track history (hours):
 
Tides and Currents Weather Stations Pressure Air Temp Water Temp Dewpoint Dewpoint Depression Visibility Wind Speed Wind Dir Waves Ship Positions

Sommer S

Owner: Shaver Transportation Company, Portland, OR. More information available from US FCC via Universal Licensing System and Coast Guard Vessel Documentation Center.

Last reported at 2017-Oct-17 21:00 UTC. Time now 2017-Oct-17 21:04 UTC.
Position N 46°03' W 122°53'.

Length 25 m; draft 16.5 m.

Type: Tug. MMSI: 367530080.

Date/timePositionNaut miles runAvg speedWind from/ knotsBaromVisibWave heightAir tempDewpointWater temp
2017-Oct-17 21:00N 46°03' W 122°53'3 5.2
2017-Oct-17 20:30N 46°05' W 122°55'2 4.3
2017-Oct-17 20:00N 46°06' W 122°57'0 0.3
2017-Oct-17 19:30N 46°06' W 122°57'1 1.1
2017-Oct-17 19:00N 46°06' W 122°56'0 0.3
2017-Oct-17 18:30N 46°06' W 122°56'0 0.0
2017-Oct-17 18:00N 46°06' W 122°56'0 0.0
2017-Oct-17 17:30N 46°06' W 122°56'0 0.0
2017-Oct-17 17:00N 46°06' W 122°56'1 1.7
2017-Oct-17 16:30N 46°05' W 122°55'2 4.3
2017-Oct-17 16:00N 46°04' W 122°53'5 9.4
2017-Oct-17 15:30N 45°60' W 122°51'4 9.0
2017-Oct-17 15:00N 45°55' W 122°48'4 8.5
2017-Oct-17 14:30N 45°51' W 122°47'4 7.3
2017-Oct-17 14:00N 45°48' W 122°47'4 7.2
2017-Oct-17 13:30N 45°44' W 122°46'3 6.8
2017-Oct-17 13:00N 45°41' W 122°46'2 4.6
2017-Oct-17 12:30N 45°39' W 122°45'1 1.0
2017-Oct-17 12:00N 45°39' W 122°46'1 1.1
2017-Oct-17 11:30N 45°39' W 122°45'1 2.0
2017-Oct-17 11:00N 45°38' W 122°43'2 3.0
2017-Oct-17 10:30N 45°39' W 122°46'0 0.7
2017-Oct-17 10:00N 45°39' W 122°46'1 1.1
2017-Oct-17 09:30N 45°40' W 122°46'0 0.2
2017-Oct-17 09:00N 45°40' W 122°46'2 3.8
2017-Oct-17 08:30N 45°39' W 122°44'2 3.6
2017-Oct-17 08:00N 45°38' W 122°42'0 0.0
2017-Oct-17 07:29N 45°38' W 122°42'0 0.4
2017-Oct-17 07:00N 45°38' W 122°42'0 0.0
2017-Oct-17 06:30N 45°38' W 122°42'0 0.0
2017-Oct-17 06:00N 45°38' W 122°42'0 0.0
2017-Oct-17 05:30N 45°38' W 122°42'0 0.0
2017-Oct-17 05:00N 45°38' W 122°42'0 0.0
2017-Oct-17 04:30N 45°38' W 122°42'1 1.5
2017-Oct-17 04:00N 45°38' W 122°43'2 3.4
2017-Oct-17 03:30N 45°39' W 122°45'2 3.9
2017-Oct-17 03:00N 45°37' W 122°47'4 8.4
2017-Oct-17 02:30N 45°34' W 122°44'0 0.9
2017-Oct-17 02:00N 45°34' W 122°44'0 0.0
2017-Oct-17 01:30N 45°34' W 122°44'0 0.0
2017-Oct-17 01:00N 45°34' W 122°44'0 0.0
2017-Oct-17 00:30N 45°34' W 122°44'0 0.0
2017-Oct-17 00:00N 45°34' W 122°44'0 0.0
2017-Oct-16 23:30N 45°34' W 122°44'0 0.0
2017-Oct-16 23:00N 45°34' W 122°44'0 0.1
2017-Oct-16 22:30N 45°34' W 122°44'0 0.0
2017-Oct-16 22:00N 45°34' W 122°44'0 0.0
2017-Oct-16 21:30N 45°34' W 122°44'0 0.0
2017-Oct-16 21:00N 45°34' W 122°44'0 0.0
2017-Oct-16 20:30N 45°34' W 122°44'0 0.0
2017-Oct-16 20:00N 45°34' W 122°44'0 0.0
2017-Oct-16 19:30N 45°34' W 122°44'0 0.0
2017-Oct-16 19:00N 45°34' W 122°44'0 0.0
2017-Oct-16 18:30N 45°34' W 122°44'0 0.0
2017-Oct-16 18:00N 45°34' W 122°44'0 0.0
2017-Oct-16 17:30N 45°34' W 122°44'0 0.0
2017-Oct-16 17:00N 45°34' W 122°44'0 0.0
2017-Oct-16 16:30N 45°34' W 122°44'0 0.0
2017-Oct-16 16:00N 45°34' W 122°44'0 0.0
2017-Oct-16 15:30N 45°34' W 122°44'0 0.0
2017-Oct-16 15:00N 45°34' W 122°44'0 0.0
2017-Oct-16 14:30N 45°34' W 122°44'0 0.0
2017-Oct-16 13:30N 45°34' W 122°44'0 0.0
2017-Oct-16 13:00N 45°34' W 122°44'0 0.0
2017-Oct-16 12:30N 45°34' W 122°44'0 0.0
2017-Oct-16 12:00N 45°34' W 122°44'0 0.0
2017-Oct-16 11:30N 45°34' W 122°44'2 4.8
2017-Oct-16 11:00N 45°35' W 122°46'3 6.1
2017-Oct-16 10:30N 45°38' W 122°47'0 0.3
2017-Oct-16 10:00N 45°38' W 122°47'3 5.1
2017-Oct-16 09:30N 45°41' W 122°46'1 1.6
2017-Oct-16 09:00N 45°40' W 122°46'4 8.0
2017-Oct-16 08:30N 45°38' W 122°42'0 0.2
2017-Oct-16 08:00N 45°38' W 122°42'1 1.0
2017-Oct-16 07:22N 45°38' W 122°43'2 4.7
2017-Oct-16 07:00N 45°39' W 122°45'510.0
2017-Oct-16 06:30N 45°44' W 122°46'510.6
2017-Oct-16 06:00N 45°49' W 122°48'510.2
2017-Oct-16 05:30N 45°54' W 122°48'510.1
2017-Oct-16 05:00N 45°59' W 122°50'510.1
2017-Oct-16 04:30N 46°03' W 122°53'4 8.4
2017-Oct-16 04:00N 46°06' W 122°58'1 1.3
2017-Oct-16 03:31N 46°06' W 122°57'0 0.1
2017-Oct-16 03:00N 46°06' W 122°57'0 0.1
2017-Oct-16 02:30N 46°06' W 122°57'0 0.1
2017-Oct-16 02:00N 46°06' W 122°57'0 0.1
2017-Oct-16 01:30N 46°06' W 122°57'0 0.6
2017-Oct-16 01:00N 46°06' W 122°57'0 0.2
2017-Oct-16 00:30N 46°06' W 122°56'0 0.1
2017-Oct-16 00:00N 46°06' W 122°56'0 0.0
2017-Oct-15 23:30N 46°06' W 122°56'0 0.0
2017-Oct-15 23:00N 46°06' W 122°56'1 1.3
2017-Oct-15 22:30N 46°05' W 122°56'1 1.0
2017-Oct-15 22:00N 46°06' W 122°56'1 1.4
2017-Oct-15 21:30N 46°05' W 122°55'4 8.7
2017-Oct-15 21:00N 46°02' W 122°53'0 0.0
2017-Oct-15 20:29N 46°02' W 122°53'4 8.9
2017-Oct-15 20:00N 46°05' W 122°55'0 0.6
2017-Oct-15 19:25N 46°05' W 122°56'2 4.3
2017-Oct-15 19:00N 46°05' W 122°54'1 2.0
2017-Oct-15 18:30N 46°04' W 122°53'5 9.0
2017-Oct-15 18:00N 46°06' W 122°58'611.9
2017-Oct-15 17:30N 46°10' W 123°05'510.8
2017-Oct-15 17:00N 46°10' W 123°13'1 2.8
2017-Oct-15 16:30N 46°11' W 123°11'611.1
2017-Oct-15 16:00N 46°09' W 123°03'612.0
2017-Oct-15 15:30N 46°06' W 122°56'612.1
2017-Oct-15 15:00N 46°01' W 122°52'2 1.4
2017-Oct-15 13:54N 45°59' W 122°50'0 0.0
2017-Oct-15 13:30N 45°59' W 122°50'0 0.0
2017-Oct-15 13:00N 45°59' W 122°50'0 0.0
2017-Oct-15 12:30N 45°59' W 122°50'0 0.0
2017-Oct-15 12:00N 45°59' W 122°50'0 0.0
2017-Oct-15 11:30N 45°59' W 122°50'0 0.0
2017-Oct-15 11:00N 45°59' W 122°50'0 0.0
2017-Oct-15 10:30N 45°59' W 122°50'0 0.0
2017-Oct-15 10:00N 45°59' W 122°50'0 0.0
2017-Oct-15 09:30N 45°59' W 122°50'0 0.0
2017-Oct-15 09:00N 45°59' W 122°50'0 0.0
2017-Oct-15 08:30N 45°59' W 122°50'0 0.0
2017-Oct-15 08:01N 45°59' W 122°50'0 0.0
2017-Oct-15 07:30N 45°59' W 122°50'0 0.0
2017-Oct-15 07:00N 45°59' W 122°50'0 0.0
2017-Oct-15 06:30N 45°59' W 122°50'0 0.0
2017-Oct-15 06:00N 45°59' W 122°50'0 0.0
2017-Oct-15 05:30N 45°59' W 122°50'1 1.2
2017-Oct-15 05:00N 45°59' W 122°50'612.0
2017-Oct-15 04:30N 45°53' W 122°48'612.4
2017-Oct-15 04:00N 45°47' W 122°46'612.4
2017-Oct-15 03:30N 45°41' W 122°46'5 9.5
2017-Oct-15 03:00N 45°36' W 122°47'4 7.8
2017-Oct-15 02:30N 45°33' W 122°43'1 1.4
2017-Oct-15 01:53N 45°33' W 122°42'2 2.9
2017-Oct-15 01:20N 45°34' W 122°44'0 0.0
2017-Oct-15 01:00N 45°34' W 122°44'0 0.0
2017-Oct-15 00:30N 45°34' W 122°44'0 0.0
2017-Oct-15 00:00N 45°34' W 122°44'0 0.8
2017-Oct-14 23:30N 45°34' W 122°44'4 7.2
2017-Oct-14 22:53N 45°38' W 122°47'2 6.1
2017-Oct-14 22:30N 45°39' W 122°44'1 2.0
2017-Oct-14 22:00N 45°38' W 122°43'0 0.2
2017-Oct-14 21:30N 45°38' W 122°43'1 1.9
2017-Oct-14 21:00N 45°39' W 122°44'0 0.6
2017-Oct-14 20:30N 45°39' W 122°45'0 0.8
2017-Oct-14 20:00N 45°39' W 122°44'1 2.0
2017-Oct-14 19:30N 45°39' W 122°45'1 1.2
2017-Oct-14 19:00N 45°40' W 122°46'1 1.1
2017-Oct-14 18:30N 45°39' W 122°46'1 1.0
2017-Oct-14 18:00N 45°39' W 122°47'0 0.0
2017-Oct-14 17:30N 45°39' W 122°47'0 0.0
2017-Oct-14 17:00N 45°39' W 122°47'0 0.0
2017-Oct-14 16:30N 45°39' W 122°47'0 0.0
2017-Oct-14 16:00N 45°39' W 122°47'0 0.0
2017-Oct-14 15:30N 45°39' W 122°47'0 0.0
2017-Oct-14 15:00N 45°39' W 122°47'0 0.0
2017-Oct-14 14:30N 45°39' W 122°47'0 0.0
2017-Oct-14 14:00N 45°39' W 122°47'0 0.0
2017-Oct-14 13:30N 45°39' W 122°47'0 0.0
2017-Oct-14 13:00N 45°39' W 122°47'1 1.8
2017-Oct-14 12:30N 45°39' W 122°46'0 0.8
2017-Oct-14 12:00N 45°39' W 122°45'0 0.0
2017-Oct-14 11:30N 45°39' W 122°45'0 0.0
2017-Oct-14 11:00N 45°39' W 122°45'0 0.0
2017-Oct-14 10:30N 45°39' W 122°45'0 0.0
2017-Oct-14 10:00N 45°39' W 122°45'0 0.0
2017-Oct-14 09:29N 45°39' W 122°45'3 5.8
2017-Oct-14 09:00N 45°38' W 122°42'0 0.1
2017-Oct-14 08:30N 45°38' W 122°42'0 0.2
2017-Oct-14 08:00N 45°38' W 122°42'0 0.0
2017-Oct-14 07:30N 45°38' W 122°42'0 0.0
2017-Oct-14 07:01N 45°38' W 122°42'0 0.0
2017-Oct-14 06:30N 45°38' W 122°42'0 0.0
2017-Oct-14 06:00N 45°38' W 122°42'0 0.0
2017-Oct-14 05:30N 45°38' W 122°42'0 0.0
2017-Oct-14 05:00N 45°38' W 122°42'0 0.0
2017-Oct-14 04:27N 45°38' W 122°42'0 0.0
2017-Oct-14 04:00N 45°38' W 122°42'0 0.0
2017-Oct-14 03:21N 45°38' W 122°42'0 0.0
2017-Oct-14 03:00N 45°38' W 122°42'0 0.0
2017-Oct-14 02:30N 45°38' W 122°42'0 0.0
2017-Oct-14 02:00N 45°38' W 122°42'2 3.3
2017-Oct-14 01:30N 45°39' W 122°44'2 3.0
2017-Oct-14 01:00N 45°39' W 122°46'1 2.2
2017-Oct-14 00:31N 45°38' W 122°45'0 0.1
2017-Oct-14 00:00N 45°38' W 122°45'1 1.8
2017-Oct-13 23:30N 45°39' W 122°45'0 0.0
2017-Oct-13 23:00N 45°39' W 122°45'0 0.0
2017-Oct-13 22:30N 45°39' W 122°45'0 0.0
2017-Oct-13 22:00N 45°39' W 122°45'1 1.5
2017-Oct-13 21:15N 45°40' W 122°46'2 8.6
2017-Oct-13 21:00N 45°42' W 122°46'5 9.8
2017-Oct-13 20:30N 45°47' W 122°47'5 9.9
2017-Oct-13 20:00N 45°52' W 122°47'510.2
2017-Oct-13 19:30N 45°57' W 122°49'510.4
2017-Oct-13 19:01N 46°02' W 122°52'0 0.1
2017-Oct-13 18:21N 46°02' W 122°53'0 0.2
2017-Oct-13 18:00N 46°02' W 122°53'0 0.0
2017-Oct-13 17:13N 46°02' W 122°53'0 0.0
2017-Oct-13 17:00N 46°02' W 122°53'0 0.0
2017-Oct-13 16:30N 46°02' W 122°53'0 0.0
2017-Oct-13 16:00N 46°02' W 122°53'0 0.0
2017-Oct-13 15:30N 46°02' W 122°53'0 0.1
2017-Oct-13 15:00N 46°02' W 122°53'0 0.0
2017-Oct-13 14:30N 46°02' W 122°53'0 0.0
2017-Oct-13 13:51N 46°02' W 122°53'3 8.4
2017-Oct-13 13:30N 46°04' W 122°54'2 3.6
2017-Oct-13 12:50N 46°06' W 122°56'1 1.8
2017-Oct-13 12:30N 46°06' W 122°57'1 2.0
2017-Oct-13 11:56N 46°05' W 122°56'0 0.0
2017-Oct-13 11:30N 46°05' W 122°56'0 0.0
2017-Oct-13 11:00N 46°05' W 122°56'0 0.0
2017-Oct-13 10:30N 46°05' W 122°56'0 0.0
2017-Oct-13 10:00N 46°05' W 122°56'0 0.0
2017-Oct-13 09:15N 46°05' W 122°56'0 0.0
2017-Oct-13 09:00N 46°05' W 122°56'0 0.0
2017-Oct-13 08:30N 46°05' W 122°56'0 0.0
2017-Oct-13 07:52N 46°05' W 122°56'0 0.0
2017-Oct-13 07:30N 46°05' W 122°56'0 0.0
2017-Oct-13 06:59N 46°05' W 122°56'0 0.0
2017-Oct-13 06:30N 46°05' W 122°56'0 0.0
2017-Oct-13 05:55N 46°05' W 122°56'0 0.0
2017-Oct-13 05:30N 46°05' W 122°56'0 0.0
2017-Oct-13 05:00N 46°05' W 122°56'0 0.0
2017-Oct-13 04:30N 46°05' W 122°56'0 0.0
2017-Oct-13 04:00N 46°05' W 122°56'0 0.0
2017-Oct-13 03:30N 46°05' W 122°56'0 0.0
2017-Oct-13 03:00N 46°05' W 122°56'0 0.0
2017-Oct-13 02:21N 46°05' W 122°56'0 0.0
2017-Oct-13 02:00N 46°05' W 122°56'0 0.0
2017-Oct-13 01:30N 46°05' W 122°56'0 0.0
2017-Oct-13 01:00N 46°05' W 122°56'0 0.0
2017-Oct-13 00:30N 46°05' W 122°56'0 0.0
2017-Oct-13 00:00N 46°05' W 122°56'0 0.0
2017-Oct-12 23:30N 46°05' W 122°56'0 0.0
2017-Oct-12 23:00N 46°05' W 122°56'0 0.0
2017-Oct-12 22:30N 46°05' W 122°56'0 0.0
2017-Oct-12 22:00N 46°05' W 122°56'0 0.0
2017-Oct-12 21:30N 46°05' W 122°56'0 0.0
2017-Oct-12 21:00N 46°05' W 122°56'0 0.0
2017-Oct-12 20:31N 46°05' W 122°56'0 0.0
2017-Oct-12 20:00N 46°05' W 122°56'0 0.0
2017-Oct-12 19:30N 46°05' W 122°56'0 0.0
2017-Oct-12 19:00N 46°05' W 122°56'0 0.0
2017-Oct-12 18:30N 46°05' W 122°56'0 0.0
2017-Oct-12 18:00N 46°05' W 122°56'0 0.0
2017-Oct-12 17:30N 46°05' W 122°56'0 0.0
2017-Oct-12 16:56N 46°05' W 122°56'0 0.0
2017-Oct-12 16:30N 46°05' W 122°56'0 0.0
2017-Oct-12 16:00N 46°05' W 122°56'0 0.0
2017-Oct-12 15:30N 46°05' W 122°56'0 0.0
2017-Oct-12 15:00N 46°05' W 122°56'0 0.0
2017-Oct-12 14:30N 46°05' W 122°56'0 0.0
2017-Oct-12 13:52N 46°05' W 122°56'0 0.0
2017-Oct-12 13:30N 46°05' W 122°56'0 0.0
2017-Oct-12 12:55N 46°05' W 122°56'0 0.0
2017-Oct-12 12:30N 46°05' W 122°56'0 0.0
2017-Oct-12 11:53N 46°05' W 122°56'0 0.0
2017-Oct-12 11:31N 46°05' W 122°56'0 0.0
2017-Oct-12 10:57N 46°05' W 122°56'0 0.0
2017-Oct-12 10:30N 46°05' W 122°56'0 0.0
2017-Oct-12 09:51N 46°05' W 122°56'0 0.0
2017-Oct-12 09:30N 46°05' W 122°56'0 0.0
2017-Oct-12 08:56N 46°05' W 122°56'0 0.0
2017-Oct-12 08:30N 46°05' W 122°56'1 1.1
2017-Oct-12 07:43N 46°06' W 122°57'1 3.8
2017-Oct-12 07:30N 46°07' W 122°58'0 0.1
2017-Oct-12 07:00N 46°07' W 122°58'1 1.6
2017-Oct-12 06:30N 46°07' W 122°59'1 1.5
2017-Oct-12 06:00N 46°07' W 122°58'2 3.1
2017-Oct-12 05:26N 46°05' W 122°56'0 0.0
2017-Oct-12 05:00N 46°05' W 122°56'1 2.1
2017-Oct-12 04:30N 46°06' W 122°57'510.4
2017-Oct-12 04:00N 46°09' W 123°03'611.3
2017-Oct-12 03:30N 46°11' W 123°11'0 0.3
2017-Oct-12 03:00N 46°11' W 123°11'0 0.8
2017-Oct-12 02:30N 46°11' W 123°12'1 1.2
2017-Oct-12 02:00N 46°11' W 123°11'0 0.0
2017-Oct-12 01:30N 46°11' W 123°11'0 0.0
2017-Oct-12 01:00N 46°11' W 123°11'611.3
2017-Oct-12 00:31N 46°09' W 123°03'3 3.9
2017-Oct-11 23:50N 46°08' W 123°00'3 8.7
2017-Oct-11 23:30N 46°06' W 122°57'1 2.5
2017-Oct-11 23:00N 46°05' W 122°55'0 0.1
2017-Oct-11 22:20N 46°05' W 122°55'0 1.2
2017-Oct-11 21:58N 46°06' W 122°56'1 2.1
2017-Oct-11 21:30N 46°06' W 122°57'0 0.0
2017-Oct-11 21:00N 46°06' W 122°57'1 2.6
2017-Oct-11 20:30N 46°05' W 122°55'3 6.9
2017-Oct-11 20:00N 46°03' W 122°53'0 0.1
2017-Oct-11 19:30N 46°03' W 122°53'3 7.0
2017-Oct-11 19:00N 46°05' W 122°55'0 0.6
2017-Oct-11 18:30N 46°05' W 122°56'0 0.0
2017-Oct-11 18:00N 46°05' W 122°56'0 0.0
2017-Oct-11 17:31N 46°05' W 122°56'0 0.0
2017-Oct-11 17:00N 46°05' W 122°56'5 0.3
2017-Oct-11 00:00N 46°01' W 122°52'0 0.1
2017-Oct-10 23:30N 46°01' W 122°52'0 0.0
2017-Oct-10 23:00N 46°01' W 122°52'0 0.0
2017-Oct-10 22:30N 46°01' W 122°52'0 0.0
2017-Oct-10 22:00N 46°01' W 122°52'0 0.9
2017-Oct-10 21:30N 46°02' W 122°53'2 3.9
2017-Oct-10 21:00N 45°60' W 122°51'1 1.3
2017-Oct-10 20:30N 45°59' W 122°50'0 0.0
2017-Oct-10 20:01N 45°59' W 122°50'0 0.0
2017-Oct-10 19:30N 45°59' W 122°50'0 0.0
2017-Oct-10 19:01N 45°59' W 122°50'0 0.0
2017-Oct-10 18:30N 45°59' W 122°50'0 0.0
2017-Oct-10 18:00N 45°59' W 122°50'0 0.0
2017-Oct-10 17:30N 45°59' W 122°50'0 0.0
2017-Oct-10 17:00N 45°59' W 122°50'0 0.0
2017-Oct-10 16:31N 45°59' W 122°50'0 0.0
2017-Oct-10 16:00N 45°59' W 122°50'0 0.0
2017-Oct-10 15:26N 45°59' W 122°50'0 0.0
2017-Oct-10 15:00N 45°59' W 122°50'1 0.5
2017-Oct-10 14:00N 45°59' W 122°50'0 0.1
2017-Oct-10 13:30N 45°59' W 122°50'1 1.5
2017-Oct-10 13:00N 45°60' W 122°51'0 0.3
2017-Oct-10 12:15N 45°59' W 122°50'0 0.0
2017-Oct-10 12:00N 45°59' W 122°50'0 0.0
2017-Oct-10 11:30N 45°59' W 122°50'0 0.0
2017-Oct-10 11:00N 45°59' W 122°50'0 0.0
2017-Oct-10 10:30N 45°59' W 122°50'0 0.0
2017-Oct-10 10:01N 45°59' W 122°50'0 0.0
2017-Oct-10 09:17N 45°59' W 122°50'0 0.0
2017-Oct-10 08:51N 45°59' W 122°50'0 0.0
2017-Oct-10 08:30N 45°59' W 122°50'0 0.0
2017-Oct-10 08:00N 45°59' W 122°50'0 0.0
2017-Oct-10 07:31N 45°59' W 122°50'0 0.0
2017-Oct-10 07:00N 45°59' W 122°50'0 0.0
2017-Oct-10 06:30N 45°59' W 122°50'0 0.0
2017-Oct-10 05:56N 45°59' W 122°50'0 0.0
2017-Oct-10 05:30N 45°59' W 122°50'0 0.0
2017-Oct-10 05:01N 45°59' W 122°50'0 0.0
2017-Oct-10 04:30N 45°59' W 122°50'0 0.0
2017-Oct-10 03:51N 45°59' W 122°50'0 0.0
2017-Oct-10 03:30N 45°59' W 122°50'0 0.0
2017-Oct-10 02:56N 45°59' W 122°50'0 0.0
2017-Oct-10 02:30N 45°59' W 122°50'0 0.0
2017-Oct-10 02:01N 45°59' W 122°50'0 0.4
2017-Oct-10 01:11N 45°59' W 122°50'0 1.8
2017-Oct-10 01:01N 45°59' W 122°50'2 4.0
2017-Oct-10 00:30N 46°01' W 122°52'510.0
2017-Oct-10 00:01N 46°05' W 122°56'0 0.4
2017-Oct-09 23:30N 46°05' W 122°56'0 0.0
2017-Oct-09 23:00N 46°05' W 122°56'0 0.0
2017-Oct-09 22:30N 46°05' W 122°56'0 0.0
2017-Oct-09 22:00N 46°05' W 122°56'0 0.0
2017-Oct-09 21:30N 46°05' W 122°56'0 0.0
2017-Oct-09 21:00N 46°05' W 122°56'0 0.0
2017-Oct-09 20:30N 46°05' W 122°56'0 0.0
2017-Oct-09 20:00N 46°05' W 122°56'0 0.0
2017-Oct-09 19:31N 46°05' W 122°56'1 2.7
2017-Oct-09 19:00N 46°06' W 122°58'4 7.4
2017-Oct-09 18:30N 46°09' W 123°02'4 7.3
2017-Oct-09 18:00N 46°10' W 123°06'3 6.9
2017-Oct-09 17:30N 46°11' W 123°11'4 7.4
2017-Oct-09 17:00N 46°09' W 123°16'4 7.6
2017-Oct-09 16:30N 46°09' W 123°21'3 6.5
2017-Oct-09 16:00N 46°10' W 123°25'4 7.3
2017-Oct-09 15:31N 46°14' W 123°26'3 6.3
2017-Oct-09 15:00N 46°16' W 123°29'4 7.7
2017-Oct-09 14:30N 46°15' W 123°34'4 7.8
2017-Oct-09 14:00N 46°15' W 123°40'4 8.1
2017-Oct-09 13:30N 46°13' W 123°45'4 7.6
2017-Oct-09 13:00N 46°11' W 123°50'1 2.7
2017-Oct-09 12:30N 46°11' W 123°52'0 0.6
2017-Oct-09 12:01N 46°12' W 123°52'2 3.0
2017-Oct-09 11:30N 46°12' W 123°50'0 0.7
2017-Oct-09 10:59N 46°11' W 123°50'0 0.0
2017-Oct-09 10:13N 46°11' W 123°50'0 2.0
2017-Oct-09 10:00N 46°12' W 123°49'1 1.7
2017-Oct-09 09:30N 46°12' W 123°48'1 2.6
2017-Oct-09 09:01N 46°11' W 123°50'2 4.4
2017-Oct-09 08:30N 46°13' W 123°47'4 8.1
2017-Oct-09 08:00N 46°15' W 123°42'5 9.0
2017-Oct-09 07:30N 46°15' W 123°36'5 9.1
2017-Oct-09 07:00N 46°16' W 123°29'4 8.8
2017-Oct-09 06:30N 46°13' W 123°25'4 7.9
2017-Oct-09 06:01N 46°09' W 123°23'510.8
2017-Oct-09 05:30N 46°09' W 123°16'510.7
2017-Oct-09 05:00N 46°11' W 123°09'510.5
2017-Oct-09 04:30N 46°09' W 123°02'5 9.3
2017-Oct-09 04:00N 46°06' W 122°57'2 4.0
2017-Oct-09 03:31N 46°05' W 122°54'4 7.1
2017-Oct-09 03:00N 46°02' W 122°52'0 0.5
2017-Oct-09 02:30N 46°01' W 122°52'0 0.2
2017-Oct-09 02:00N 46°01' W 122°52'0 0.1
2017-Oct-09 01:31N 46°01' W 122°52'0 0.0
2017-Oct-09 00:49N 46°01' W 122°52'0 0.2
2017-Oct-09 00:31N 46°01' W 122°52'0 0.2
2017-Oct-09 00:00N 46°01' W 122°52'0 0.0
2017-Oct-08 23:30N 46°01' W 122°52'0 0.0
2017-Oct-08 23:00N 46°01' W 122°52'0 0.0
2017-Oct-08 22:16N 46°01' W 122°52'1 2.4
2017-Oct-08 22:00N 46°02' W 122°53'2 3.5
2017-Oct-08 21:30N 46°04' W 122°53'4 7.5
2017-Oct-08 21:00N 46°06' W 122°57'1 1.7
2017-Oct-08 20:30N 46°07' W 122°58'0 0.3
2017-Oct-08 20:00N 46°07' W 122°58'0 0.7
2017-Oct-08 19:31N 46°07' W 122°58'2 3.4
2017-Oct-08 19:00N 46°05' W 122°56'0 0.0
2017-Oct-08 18:30N 46°05' W 122°56'0 0.0
2017-Oct-08 17:47N 46°05' W 122°56'0 0.0
2017-Oct-08 17:30N 46°05' W 122°56'0 0.0
2017-Oct-08 17:00N 46°05' W 122°56'0 0.0
2017-Oct-08 16:30N 46°05' W 122°56'0 0.0
2017-Oct-08 16:00N 46°05' W 122°56'0 0.0
2017-Oct-08 15:30N 46°05' W 122°56'0 0.0
2017-Oct-08 14:46N 46°05' W 122°56'0 0.0
2017-Oct-08 14:25N 46°05' W 122°56'0 0.0
2017-Oct-08 14:01N 46°05' W 122°56'0 0.0
2017-Oct-08 13:30N 46°05' W 122°56'2 4.6
2017-Oct-08 13:00N 46°04' W 122°53'3 5.7
2017-Oct-08 12:30N 46°01' W 122°52'0 0.6
2017-Oct-08 12:01N 46°01' W 122°52'0 0.3
2017-Oct-08 11:30N 46°01' W 122°52'1 1.0
2017-Oct-08 11:01N 46°02' W 122°52'0 0.0
2017-Oct-08 10:30N 46°02' W 122°52'0 0.0
2017-Oct-08 10:01N 46°02' W 122°52'0 0.0
2017-Oct-08 09:30N 46°02' W 122°52'0 0.0
2017-Oct-08 09:00N 46°02' W 122°52'0 0.0
2017-Oct-08 08:20N 46°02' W 122°52'0 0.0
2017-Oct-08 08:01N 46°02' W 122°52'0 0.0
2017-Oct-08 07:30N 46°02' W 122°52'4 7.8
2017-Oct-08 07:00N 46°05' W 122°55'2 4.2
2017-Oct-08 06:30N 46°06' W 122°57'0 0.0
2017-Oct-08 06:00N 46°06' W 122°57'1 1.5
2017-Oct-08 05:30N 46°06' W 122°56'4 8.0
2017-Oct-08 05:00N 46°03' W 122°53'0 0.4
2017-Oct-08 04:30N 46°03' W 122°53'0 0.0
2017-Oct-08 04:00N 46°03' W 122°53'0 0.0
2017-Oct-08 03:20N 46°03' W 122°53'0 0.0
2017-Oct-08 03:01N 46°03' W 122°53'0 0.1
2017-Oct-08 02:30N 46°03' W 122°53'1 1.8
2017-Oct-08 02:00N 46°02' W 122°52'0 0.0
2017-Oct-08 01:30N 46°02' W 122°52'0 0.0
2017-Oct-08 00:58N 46°02' W 122°52'0 0.0
2017-Oct-08 00:30N 46°02' W 122°52'0 0.0
2017-Oct-08 00:00N 46°02' W 122°52'0 0.0
2017-Oct-07 23:30N 46°02' W 122°52'0 0.0
2017-Oct-07 23:00N 46°02' W 122°52'0 0.0
2017-Oct-07 22:30N 46°02' W 122°52'0 0.0
2017-Oct-07 22:00N 46°02' W 122°52'0 0.0
2017-Oct-07 21:30N 46°02' W 122°52'0 0.0
2017-Oct-07 21:00N 46°02' W 122°52'  

Dump ship's entire track history